Aeroporto :
LOGIN :

Iscrizione | Disclaimer

   EN    FR    IT 

 










Sommario :    VFR   VFR Marginale   IFR   IFR Intensivo   IFR Molto Intensivo
Visibilità : 
Base nubi : 
>= 8 km
>= 3000ft
5 / 8 km
1000 / 3000 ft
1500m / 5 km
500 / 1000 ft
800 / 1500m
200 / 500 ft
< 800m
< 200 ft
Simboli :   Temporali  Nebbia  Neve Forte  Precipitazioni Forti  Vento > 20 kt
SIGMETs :   Varie  Temporali  Ghiacco  Turbolenza  Onda orograficha  Ceneri Vulcaniche






- Altitudine del aeroporto : 235 ft
- Codice IATA : BZG


EPBY - Bydgoszcz

ULTIMO METAR :
  • 211530Z 10014KT 9999 SCT008 OVC009 08/07 Q1015

METARs OBSOLETI :
  • 211500Z 10012KT 9999 SCT006 OVC007 08/07 Q1015
  • 211430Z 10014KT 7000 -DZ BKN005 OVC006 08/07 Q1015
  • 211400Z 10015KT 9999 BKN005 OVC006 08/07 Q1015
  • 211330Z 11015KT 9999 -RA OVC005 08/07 Q1015
  • 211300Z 10013KT 9000 -RA BKN005 OVC006 08/07 Q1015

TAF TAF EPBY
Valido dal 21 a 12 ore il 22 a 12 ore UTC


211130Z 2112/2212 10014KT 9999 BKN007
TEMPO 2112/2124 12018G28KT 4000 RADZ OVC003
TEMPO 2200/2206 BKN004



MetMap, La meteo Aeronautica in un colpo d'occhio ! - Copyright ORBIFLY Dicembre 2007 - Disclaimer

ORBIFLY MET'MAP TEAM :

Programmazione e sviluppo : Alexandra Zaïnal
Concezione e sviluppo : Baudouin d'Aumeries
Co-Programmazione e sviluppo : Marc-Olivier Méhu
Supporto tecnico e logistico : Manuel Goepfert
Aiuto per la traduzione : Arnaldo La Scala

Contatto : metmap@orbifly.com




FONTI E CREDITI :

   NOAA